sensor_id;sensor_type;location;lat;lon;timestamp;pressure;altitude;pressure_sealevel;temperature;humidity
76137;BME280;68622;53.128;17.966;2023-10-08T00:00:45;101045.38;;;12.11;73.73
76137;BME280;68622;53.128;17.966;2023-10-08T00:03:33;101043.77;;;12.12;74.15
76137;BME280;68622;53.128;17.966;2023-10-08T00:06:02;101062.58;;;12.12;74.11
76137;BME280;68622;53.128;17.966;2023-10-08T00:08:33;101069.08;;;12.13;73.88
76137;BME280;68622;53.128;17.966;2023-10-08T00:11:00;101071.52;;;12.13;73.82
76137;BME280;68622;53.128;17.966;2023-10-08T00:13:33;101072.21;;;12.13;73.79
76137;BME280;68622;53.128;17.966;2023-10-08T00:16:07;101069.35;;;12.13;73.67
76137;BME280;68622;53.128;17.966;2023-10-08T00:18:38;101068.89;;;12.13;73.54
76137;BME280;68622;53.128;17.966;2023-10-08T00:21:07;101077.94;;;12.13;73.67
76137;BME280;68622;53.128;17.966;2023-10-08T00:23:37;101077.44;;;12.13;73.54
76137;BME280;68622;53.128;17.966;2023-10-08T00:26:08;101056.83;;;12.14;73.31
76137;BME280;68622;53.128;17.966;2023-10-08T00:28:35;101051.78;;;12.12;73.54
76137;BME280;68622;53.128;17.966;2023-10-08T00:31:03;101059.20;;;12.10;73.69
76137;BME280;68622;53.128;17.966;2023-10-08T00:33:38;101047.98;;;12.09;73.52
76137;BME280;68622;53.128;17.966;2023-10-08T00:36:06;101052.76;;;12.08;73.46
76137;BME280;68622;53.128;17.966;2023-10-08T00:38:47;101066.35;;;12.08;73.36
76137;BME280;68622;53.128;17.966;2023-10-08T00:41:17;101086.33;;;12.06;73.09
76137;BME280;68622;53.128;17.966;2023-10-08T00:43:49;101088.55;;;12.03;72.69
76137;BME280;68622;53.128;17.966;2023-10-08T00:46:17;101100.99;;;11.98;72.24
76137;BME280;68622;53.128;17.966;2023-10-08T00:48:52;101109.58;;;11.96;71.89
76137;BME280;68622;53.128;17.966;2023-10-08T00:51:22;101118.55;;;11.90;70.71
76137;BME280;68622;53.128;17.966;2023-10-08T00:53:53;101118.50;;;11.89;70.37
76137;BME280;68622;53.128;17.966;2023-10-08T00:56:26;101115.02;;;11.87;69.61
76137;BME280;68622;53.128;17.966;2023-10-08T00:59:10;101121.89;;;11.82;68.67
76137;BME280;68622;53.128;17.966;2023-10-08T01:01:49;101104.73;;;11.81;69.07
76137;BME280;68622;53.128;17.966;2023-10-08T01:04:23;101100.30;;;11.80;69.01
76137;BME280;68622;53.128;17.966;2023-10-08T01:06:56;101113.86;;;11.76;68.57
76137;BME280;68622;53.128;17.966;2023-10-08T01:09:26;101112.80;;;11.77;68.88
76137;BME280;68622;53.128;17.966;2023-10-08T01:14:35;101117.08;;;11.73;68.12
76137;BME280;68622;53.128;17.966;2023-10-08T01:17:02;101119.77;;;11.70;68.01
76137;BME280;68622;53.128;17.966;2023-10-08T01:19:31;101128.73;;;11.69;67.95
76137;BME280;68622;53.128;17.966;2023-10-08T01:22:04;101134.52;;;11.68;68.30
76137;BME280;68622;53.128;17.966;2023-10-08T01:24:33;101131.02;;;11.66;68.15
76137;BME280;68622;53.128;17.966;2023-10-08T01:27:03;101133.02;;;11.65;67.88
76137;BME280;68622;53.128;17.966;2023-10-08T01:29:31;101130.60;;;11.63;67.63
76137;BME280;68622;53.128;17.966;2023-10-08T01:31:58;101139.33;;;11.61;67.39
76137;BME280;68622;53.128;17.966;2023-10-08T01:34:24;101148.31;;;11.60;67.19
76137;BME280;68622;53.128;17.966;2023-10-08T01:36:57;101158.57;;;11.53;66.12
76137;BME280;68622;53.128;17.966;2023-10-08T01:39:31;101172.63;;;11.54;66.50
76137;BME280;68622;53.128;17.966;2023-10-08T01:41:58;101171.67;;;11.51;65.85
76137;BME280;68622;53.128;17.966;2023-10-08T01:44:26;101179.72;;;11.48;64.97
76137;BME280;68622;53.128;17.966;2023-10-08T01:46:53;101188.75;;;11.48;65.79
76137;BME280;68622;53.128;17.966;2023-10-08T01:49:24;101191.71;;;11.44;65.15
76137;BME280;68622;53.128;17.966;2023-10-08T01:51:55;101186.65;;;11.44;65.54
76137;BME280;68622;53.128;17.966;2023-10-08T01:54:22;101192.41;;;11.41;65.13
76137;BME280;68622;53.128;17.966;2023-10-08T01:56:52;101199.09;;;11.40;64.68
76137;BME280;68622;53.128;17.966;2023-10-08T01:59:18;101205.81;;;11.39;64.44
76137;BME280;68622;53.128;17.966;2023-10-08T02:01:45;101220.67;;;11.38;64.00
76137;BME280;68622;53.128;17.966;2023-10-08T02:04:12;101218.86;;;11.37;64.09
76137;BME280;68622;53.128;17.966;2023-10-08T02:06:39;101217.45;;;11.32;63.31
76137;BME280;68622;53.128;17.966;2023-10-08T02:09:09;101214.97;;;11.29;63.27
76137;BME280;68622;53.128;17.966;2023-10-08T02:14:10;101215.64;;;11.27;63.39
76137;BME280;68622;53.128;17.966;2023-10-08T02:16:38;101224.54;;;11.21;61.71
76137;BME280;68622;53.128;17.966;2023-10-08T02:19:05;101232.79;;;11.22;61.88
76137;BME280;68622;53.128;17.966;2023-10-08T02:21:33;101234.50;;;11.18;61.39
76137;BME280;68622;53.128;17.966;2023-10-08T02:23:59;101244.83;;;11.17;61.06
76137;BME280;68622;53.128;17.966;2023-10-08T02:26:26;101246.02;;;11.15;61.45
76137;BME280;68622;53.128;17.966;2023-10-08T02:28:53;101249.77;;;11.12;61.38
76137;BME280;68622;53.128;17.966;2023-10-08T02:31:20;101254.33;;;11.09;61.58
76137;BME280;68622;53.128;17.966;2023-10-08T02:33:46;101253.20;;;11.10;62.34
76137;BME280;68622;53.128;17.966;2023-10-08T02:36:13;101260.17;;;11.06;61.84
76137;BME280;68622;53.128;17.966;2023-10-08T02:38:40;101264.38;;;11.01;62.24
76137;BME280;68622;53.128;17.966;2023-10-08T02:41:07;101266.34;;;10.90;61.73
76137;BME280;68622;53.128;17.966;2023-10-08T02:43:34;101277.98;;;10.85;61.67
76137;BME280;68622;53.128;17.966;2023-10-08T02:46:03;101280.92;;;10.81;62.17
76137;BME280;68622;53.128;17.966;2023-10-08T02:48:41;101282.82;;;10.66;60.29
76137;BME280;68622;53.128;17.966;2023-10-08T02:51:08;101282.33;;;10.55;59.19
76137;BME280;68622;53.128;17.966;2023-10-08T02:53:41;101293.07;;;10.50;59.81
76137;BME280;68622;53.128;17.966;2023-10-08T02:56:11;101304.92;;;10.45;60.01
76137;BME280;68622;53.128;17.966;2023-10-08T02:58:42;101303.31;;;10.39;59.60
76137;BME280;68622;53.128;17.966;2023-10-08T03:01:10;101313.14;;;10.29;59.20
76137;BME280;68622;53.128;17.966;2023-10-08T03:03:41;101314.77;;;10.30;59.78
76137;BME280;68622;53.128;17.966;2023-10-08T03:06:08;101319.08;;;10.35;59.85
76137;BME280;68622;53.128;17.966;2023-10-08T03:08:38;101320.75;;;10.27;58.85
76137;BME280;68622;53.128;17.966;2023-10-08T03:11:09;101322.67;;;10.29;59.50
76137;BME280;68622;53.128;17.966;2023-10-08T03:13:44;101326.26;;;10.25;59.13
76137;BME280;68622;53.128;17.966;2023-10-08T03:16:13;101331.93;;;10.21;59.56
76137;BME280;68622;53.128;17.966;2023-10-08T03:18:40;101337.52;;;10.16;59.35
76137;BME280;68622;53.128;17.966;2023-10-08T03:21:17;101343.90;;;10.10;59.69
76137;BME280;68622;53.128;17.966;2023-10-08T03:23:47;101350.48;;;10.03;60.05
76137;BME280;68622;53.128;17.966;2023-10-08T03:26:14;101356.73;;;9.94;60.05
76137;BME280;68622;53.128;17.966;2023-10-08T03:29:01;101359.47;;;9.85;60.31
76137;BME280;68622;53.128;17.966;2023-10-08T03:31:32;101365.00;;;9.73;59.34
76137;BME280;68622;53.128;17.966;2023-10-08T03:34:20;101367.17;;;9.72;59.77
76137;BME280;68622;53.128;17.966;2023-10-08T03:36:48;101375.52;;;9.67;59.03
76137;BME280;68622;53.128;17.966;2023-10-08T03:39:17;101374.92;;;9.64;58.70
76137;BME280;68622;53.128;17.966;2023-10-08T03:41:45;101377.65;;;9.57;58.43
76137;BME280;68622;53.128;17.966;2023-10-08T03:44:25;101381.31;;;9.55;58.99
76137;BME280;68622;53.128;17.966;2023-10-08T03:46:51;101379.60;;;9.49;58.56
76137;BME280;68622;53.128;17.966;2023-10-08T03:49:19;101383.56;;;9.43;58.87
76137;BME280;68622;53.128;17.966;2023-10-08T03:51:49;101387.84;;;9.34;58.41
76137;BME280;68622;53.128;17.966;2023-10-08T03:54:20;101391.94;;;9.27;58.12
76137;BME280;68622;53.128;17.966;2023-10-08T03:57:00;101393.76;;;9.19;57.01
76137;BME280;68622;53.128;17.966;2023-10-08T03:59:27;101394.67;;;9.16;57.20
76137;BME280;68622;53.128;17.966;2023-10-08T04:01:58;101403.02;;;9.13;57.37
76137;BME280;68622;53.128;17.966;2023-10-08T04:04:41;101403.02;;;9.11;57.58
76137;BME280;68622;53.128;17.966;2023-10-08T04:07:18;101400.21;;;9.06;57.80
76137;BME280;68622;53.128;17.966;2023-10-08T04:09:51;101406.80;;;9.01;57.96
76137;BME280;68622;53.128;17.966;2023-10-08T04:12:47;101410.96;;;8.96;57.98
76137;BME280;68622;53.128;17.966;2023-10-08T04:15:18;101419.19;;;8.92;57.94
76137;BME280;68622;53.128;17.966;2023-10-08T04:17:45;101426.10;;;8.83;57.93
76137;BME280;68622;53.128;17.966;2023-10-08T04:20:13;101434.23;;;8.80;58.37
76137;BME280;68622;53.128;17.966;2023-10-08T04:23:00;101433.91;;;8.72;58.69
76137;BME280;68622;53.128;17.966;2023-10-08T04:25:29;101438.95;;;8.72;58.84
76137;BME280;68622;53.128;17.966;2023-10-08T04:27:57;101438.38;;;8.68;59.01
76137;BME280;68622;53.128;17.966;2023-10-08T04:30:32;101443.92;;;8.65;59.03
76137;BME280;68622;53.128;17.966;2023-10-08T04:33:03;101441.64;;;8.61;59.15
76137;BME280;68622;53.128;17.966;2023-10-08T04:35:34;101443.52;;;8.56;59.11
76137;BME280;68622;53.128;17.966;2023-10-08T04:38:04;101450.35;;;8.52;59.18
76137;BME280;68622;53.128;17.966;2023-10-08T04:40:35;101454.32;;;8.47;59.44
76137;BME280;68622;53.128;17.966;2023-10-08T04:43:15;101456.46;;;8.41;59.68
76137;BME280;68622;53.128;17.966;2023-10-08T04:45:49;101463.55;;;8.33;59.83
76137;BME280;68622;53.128;17.966;2023-10-08T04:48:16;101470.69;;;8.27;60.08
76137;BME280;68622;53.128;17.966;2023-10-08T04:50:47;101470.60;;;8.21;60.53
76137;BME280;68622;53.128;17.966;2023-10-08T04:53:32;101477.84;;;8.15;60.67
76137;BME280;68622;53.128;17.966;2023-10-08T04:56:05;101481.94;;;8.14;61.08
76137;BME280;68622;53.128;17.966;2023-10-08T04:58:32;101480.41;;;8.11;61.18
76137;BME280;68622;53.128;17.966;2023-10-08T05:01:04;101482.48;;;8.08;61.23
76137;BME280;68622;53.128;17.966;2023-10-08T05:03:51;101486.62;;;8.03;61.45
76137;BME280;68622;53.128;17.966;2023-10-08T05:06:28;101488.55;;;8.00;61.33
76137;BME280;68622;53.128;17.966;2023-10-08T05:09:10;101491.13;;;7.95;61.38
76137;BME280;68622;53.128;17.966;2023-10-08T05:11:38;101498.60;;;7.91;61.35
76137;BME280;68622;53.128;17.966;2023-10-08T05:14:23;101504.11;;;7.89;61.87
76137;BME280;68622;53.128;17.966;2023-10-08T05:17:03;101513.26;;;7.86;62.24
76137;BME280;68622;53.128;17.966;2023-10-08T05:19:37;101517.13;;;7.85;62.38
76137;BME280;68622;53.128;17.966;2023-10-08T05:22:08;101520.73;;;7.83;62.13
76137;BME280;68622;53.128;17.966;2023-10-08T05:24:48;101528.09;;;7.81;62.13
76137;BME280;68622;53.128;17.966;2023-10-08T05:27:35;101533.56;;;7.80;62.26
76137;BME280;68622;53.128;17.966;2023-10-08T05:30:19;101542.90;;;7.77;62.32
76137;BME280;68622;53.128;17.966;2023-10-08T05:32:55;101550.06;;;7.76;62.16
76137;BME280;68622;53.128;17.966;2023-10-08T05:35:42;101553.73;;;7.75;62.32
76137;BME280;68622;53.128;17.966;2023-10-08T05:38:14;101559.79;;;7.77;62.67
76137;BME280;68622;53.128;17.966;2023-10-08T05:40:57;101564.85;;;7.79;62.54
76137;BME280;68622;53.128;17.966;2023-10-08T05:43:27;101572.50;;;7.79;62.57
76137;BME280;68622;53.128;17.966;2023-10-08T05:46:20;101579.72;;;7.82;62.72
76137;BME280;68622;53.128;17.966;2023-10-08T05:48:52;101582.35;;;7.84;62.45
76137;BME280;68622;53.128;17.966;2023-10-08T05:51:35;101585.14;;;7.86;62.61
76137;BME280;68622;53.128;17.966;2023-10-08T05:54:16;101590.67;;;7.89;63.06
76137;BME280;68622;53.128;17.966;2023-10-08T05:56:59;101600.49;;;7.95;62.77
76137;BME280;68622;53.128;17.966;2023-10-08T05:59:39;101606.30;;;7.96;62.52
76137;BME280;68622;53.128;17.966;2023-10-08T06:02:20;101615.11;;;8.01;62.56
76137;BME280;68622;53.128;17.966;2023-10-08T06:04:54;101621.08;;;8.05;62.19
76137;BME280;68622;53.128;17.966;2023-10-08T06:07:53;101624.36;;;8.08;62.16
76137;BME280;68622;53.128;17.966;2023-10-08T06:10:22;101631.09;;;8.14;62.38
76137;BME280;68622;53.128;17.966;2023-10-08T06:15:51;101638.13;;;8.25;62.43
76137;BME280;68622;53.128;17.966;2023-10-08T06:18:33;101643.05;;;8.32;62.14
76137;BME280;68622;53.128;17.966;2023-10-08T06:21:05;101647.69;;;8.35;61.71
76137;BME280;68622;53.128;17.966;2023-10-08T06:23:38;101649.83;;;8.40;61.64
76137;BME280;68622;53.128;17.966;2023-10-08T06:26:05;101649.27;;;8.46;61.21
76137;BME280;68622;53.128;17.966;2023-10-08T06:28:43;101656.40;;;8.53;60.86
76137;BME280;68622;53.128;17.966;2023-10-08T06:31:11;101657.27;;;8.61;60.72
76137;BME280;68622;53.128;17.966;2023-10-08T06:33:44;101661.21;;;8.62;59.24
76137;BME280;68622;53.128;17.966;2023-10-08T06:36:11;101663.68;;;8.69;59.45
76137;BME280;68622;53.128;17.966;2023-10-08T06:38:45;101670.30;;;8.76;58.85
76137;BME280;68622;53.128;17.966;2023-10-08T06:41:15;101678.08;;;8.84;58.42
76137;BME280;68622;53.128;17.966;2023-10-08T06:43:48;101689.91;;;8.91;57.81
76137;BME280;68622;53.128;17.966;2023-10-08T06:46:16;101694.63;;;9.00;57.62
76137;BME280;68622;53.128;17.966;2023-10-08T06:48:46;101697.09;;;9.10;57.28
76137;BME280;68622;53.128;17.966;2023-10-08T06:51:13;101702.73;;;9.17;56.57
76137;BME280;68622;53.128;17.966;2023-10-08T06:53:40;101706.23;;;9.27;57.03
76137;BME280;68622;53.128;17.966;2023-10-08T06:56:07;101711.66;;;9.36;56.53
76137;BME280;68622;53.128;17.966;2023-10-08T06:58:36;101716.52;;;9.41;55.41
76137;BME280;68622;53.128;17.966;2023-10-08T07:01:03;101715.55;;;9.47;55.22
76137;BME280;68622;53.128;17.966;2023-10-08T07:03:36;101713.54;;;9.57;53.67
76137;BME280;68622;53.128;17.966;2023-10-08T07:06:04;101709.80;;;9.61;52.60
76137;BME280;68622;53.128;17.966;2023-10-08T07:08:44;101714.67;;;9.68;52.56
76137;BME280;68622;53.128;17.966;2023-10-08T07:11:15;101716.17;;;9.74;52.42
76137;BME280;68622;53.128;17.966;2023-10-08T07:13:44;101726.42;;;9.81;51.79
76137;BME280;68622;53.128;17.966;2023-10-08T07:16:10;101721.95;;;9.87;51.35
76137;BME280;68622;53.128;17.966;2023-10-08T07:18:38;101729.56;;;10.01;51.73
76137;BME280;68622;53.128;17.966;2023-10-08T07:21:05;101729.14;;;10.06;51.18
76137;BME280;68622;53.128;17.966;2023-10-08T07:23:41;101737.55;;;10.15;51.31
76137;BME280;68622;53.128;17.966;2023-10-08T07:26:24;101740.02;;;10.25;50.78
76137;BME280;68622;53.128;17.966;2023-10-08T07:28:52;101744.52;;;10.27;49.92
76137;BME280;68622;53.128;17.966;2023-10-08T07:31:21;101747.01;;;10.36;50.49
76137;BME280;68622;53.128;17.966;2023-10-08T07:33:50;101752.48;;;10.40;50.09
76137;BME280;68622;53.128;17.966;2023-10-08T07:36:26;101753.88;;;10.44;49.72
76137;BME280;68622;53.128;17.966;2023-10-08T07:38:53;101754.08;;;10.51;49.38
76137;BME280;68622;53.128;17.966;2023-10-08T07:41:20;101761.58;;;10.55;49.00
76137;BME280;68622;53.128;17.966;2023-10-08T07:43:48;101762.59;;;10.63;48.91
76137;BME280;68622;53.128;17.966;2023-10-08T07:46:25;101764.46;;;10.74;48.88
76137;BME280;68622;53.128;17.966;2023-10-08T07:48:53;101766.52;;;10.76;48.72
76137;BME280;68622;53.128;17.966;2023-10-08T07:51:20;101768.69;;;10.82;48.67
76137;BME280;68622;53.128;17.966;2023-10-08T07:53:51;101766.96;;;10.87;48.71
76137;BME280;68622;53.128;17.966;2023-10-08T07:56:23;101764.33;;;10.99;49.39
76137;BME280;68622;53.128;17.966;2023-10-08T07:58:53;101770.70;;;11.07;48.56
76137;BME280;68622;53.128;17.966;2023-10-08T08:01:23;101774.39;;;11.16;48.56
76137;BME280;68622;53.128;17.966;2023-10-08T08:03:53;101780.25;;;11.23;48.83
76137;BME280;68622;53.128;17.966;2023-10-08T08:06:20;101776.24;;;11.32;48.88
76137;BME280;68622;53.128;17.966;2023-10-08T08:08:49;101784.54;;;11.33;47.77
76137;BME280;68622;53.128;17.966;2023-10-08T08:11:15;101783.41;;;11.34;47.54
76137;BME280;68622;53.128;17.966;2023-10-08T08:13:46;101781.59;;;11.45;48.06
76137;BME280;68622;53.128;17.966;2023-10-08T08:16:14;101781.28;;;11.54;48.05
76137;BME280;68622;53.128;17.966;2023-10-08T08:18:51;101779.19;;;11.54;47.18
76137;BME280;68622;53.128;17.966;2023-10-08T08:21:25;101786.27;;;11.59;47.29
76137;BME280;68622;53.128;17.966;2023-10-08T08:23:52;101793.48;;;11.65;47.22
76137;BME280;68622;53.128;17.966;2023-10-08T08:26:31;101789.34;;;11.66;46.89
76137;BME280;68622;53.128;17.966;2023-10-08T08:29:06;101793.81;;;11.72;46.58
76137;BME280;68622;53.128;17.966;2023-10-08T08:31:35;101799.83;;;11.63;46.19
76137;BME280;68622;53.128;17.966;2023-10-08T08:34:03;101801.31;;;11.69;46.01
76137;BME280;68622;53.128;17.966;2023-10-08T08:36:34;101808.58;;;11.72;46.50
76137;BME280;68622;53.128;17.966;2023-10-08T08:39:05;101808.83;;;11.78;46.54
76137;BME280;68622;53.128;17.966;2023-10-08T08:41:38;101813.91;;;11.82;46.16
76137;BME280;68622;53.128;17.966;2023-10-08T08:44:05;101811.45;;;11.91;46.48
76137;BME280;68622;53.128;17.966;2023-10-08T08:46:34;101813.52;;;12.00;46.38
76137;BME280;68622;53.128;17.966;2023-10-08T08:49:04;101816.12;;;12.03;45.72
76137;BME280;68622;53.128;17.966;2023-10-08T08:51:31;101815.80;;;12.09;45.77
76137;BME280;68622;53.128;17.966;2023-10-08T08:53:58;101817.73;;;12.23;46.33
76137;BME280;68622;53.128;17.966;2023-10-08T08:56:28;101822.10;;;12.29;45.63
76137;BME280;68622;53.128;17.966;2023-10-08T08:58:58;101817.16;;;12.32;45.54
76137;BME280;68622;53.128;17.966;2023-10-08T09:01:27;101824.09;;;12.24;44.36
76137;BME280;68622;53.128;17.966;2023-10-08T09:04:00;101825.24;;;12.34;44.50
76137;BME280;68622;53.128;17.966;2023-10-08T09:06:36;101826.79;;;12.25;43.52
76137;BME280;68622;53.128;17.966;2023-10-08T09:09:07;101828.20;;;12.33;43.68
76137;BME280;68622;53.128;17.966;2023-10-08T09:11:50;101830.05;;;12.43;43.75
76137;BME280;68622;53.128;17.966;2023-10-08T09:14:24;101831.82;;;12.47;42.89
76137;BME280;68622;53.128;17.966;2023-10-08T09:16:56;101835.48;;;12.38;42.49
76137;BME280;68622;53.128;17.966;2023-10-08T09:19:24;101833.96;;;12.40;42.23
76137;BME280;68622;53.128;17.966;2023-10-08T09:22:05;101833.55;;;12.40;42.15
76137;BME280;68622;53.128;17.966;2023-10-08T09:24:34;101837.07;;;12.53;42.51
76137;BME280;68622;53.128;17.966;2023-10-08T09:27:04;101838.44;;;12.56;42.40
76137;BME280;68622;53.128;17.966;2023-10-08T09:29:31;101842.99;;;12.60;41.91
76137;BME280;68622;53.128;17.966;2023-10-08T09:31:59;101841.66;;;12.70;42.15
76137;BME280;68622;53.128;17.966;2023-10-08T09:34:29;101840.12;;;12.72;41.93
76137;BME280;68622;53.128;17.966;2023-10-08T09:36:58;101837.58;;;12.77;42.04
76137;BME280;68622;53.128;17.966;2023-10-08T09:39:28;101841.45;;;12.79;41.74
76137;BME280;68622;53.128;17.966;2023-10-08T09:41:57;101833.86;;;13.00;42.30
76137;BME280;68622;53.128;17.966;2023-10-08T09:44:25;101844.06;;;13.01;40.58
76137;BME280;68622;53.128;17.966;2023-10-08T09:47:02;101840.66;;;13.13;40.82
76137;BME280;68622;53.128;17.966;2023-10-08T09:49:56;101839.48;;;13.21;40.91
76137;BME280;68622;53.128;17.966;2023-10-08T09:52:28;101848.09;;;13.16;39.54
76137;BME280;68622;53.128;17.966;2023-10-08T09:55:00;101848.63;;;13.22;40.04
76137;BME280;68622;53.128;17.966;2023-10-08T09:57:30;101865.73;;;13.28;39.92
76137;BME280;68622;53.128;17.966;2023-10-08T09:59:56;101860.24;;;13.18;39.43
76137;BME280;68622;53.128;17.966;2023-10-08T10:02:26;101858.20;;;13.26;39.72
76137;BME280;68622;53.128;17.966;2023-10-08T10:04:55;101861.98;;;13.31;39.44
76137;BME280;68622;53.128;17.966;2023-10-08T10:07:22;101860.19;;;13.30;39.48
76137;BME280;68622;53.128;17.966;2023-10-08T10:09:52;101862.49;;;13.36;39.47
76137;BME280;68622;53.128;17.966;2023-10-08T10:12:30;101857.14;;;13.35;39.74
76137;BME280;68622;53.128;17.966;2023-10-08T10:14:57;101866.21;;;13.44;40.24
76137;BME280;68622;53.128;17.966;2023-10-08T10:17:27;101872.27;;;13.44;39.69
76137;BME280;68622;53.128;17.966;2023-10-08T10:20:01;101871.34;;;13.45;39.16
76137;BME280;68622;53.128;17.966;2023-10-08T10:22:30;101870.13;;;13.41;39.21
76137;BME280;68622;53.128;17.966;2023-10-08T10:24:59;101871.45;;;13.44;39.82
76137;BME280;68622;53.128;17.966;2023-10-08T10:27:30;101864.35;;;13.45;39.29
76137;BME280;68622;53.128;17.966;2023-10-08T10:30:03;101867.30;;;13.43;39.22
76137;BME280;68622;53.128;17.966;2023-10-08T10:32:35;101866.08;;;13.33;38.54
76137;BME280;68622;53.128;17.966;2023-10-08T10:35:02;101866.73;;;13.24;38.61
76137;BME280;68622;53.128;17.966;2023-10-08T10:37:32;101860.13;;;13.26;38.62
76137;BME280;68622;53.128;17.966;2023-10-08T10:40:08;101858.80;;;13.42;39.15
76137;BME280;68622;53.128;17.966;2023-10-08T10:42:39;101863.66;;;13.62;39.22
76137;BME280;68622;53.128;17.966;2023-10-08T10:45:14;101875.15;;;13.66;39.21
76137;BME280;68622;53.128;17.966;2023-10-08T10:48:01;101869.23;;;13.75;38.21
76137;BME280;68622;53.128;17.966;2023-10-08T10:50:41;101876.77;;;13.78;37.64
76137;BME280;68622;53.128;17.966;2023-10-08T10:53:23;101871.84;;;13.81;37.16
76137;BME280;68622;53.128;17.966;2023-10-08T10:55:53;101868.02;;;13.95;37.28
76137;BME280;68622;53.128;17.966;2023-10-08T10:58:31;101864.23;;;14.03;37.06
76137;BME280;68622;53.128;17.966;2023-10-08T11:01:05;101868.16;;;14.12;37.30
76137;BME280;68622;53.128;17.966;2023-10-08T11:03:42;101868.66;;;14.12;36.94
76137;BME280;68622;53.128;17.966;2023-10-08T11:06:10;101875.19;;;14.17;36.82
76137;BME280;68622;53.128;17.966;2023-10-08T11:08:42;101873.40;;;14.14;35.12
76137;BME280;68622;53.128;17.966;2023-10-08T11:11:12;101875.08;;;14.15;34.94
76137;BME280;68622;53.128;17.966;2023-10-08T11:13:44;101878.45;;;14.14;34.99
76137;BME280;68622;53.128;17.966;2023-10-08T11:16:17;101880.59;;;14.07;34.27
76137;BME280;68622;53.128;17.966;2023-10-08T11:18:49;101879.83;;;14.17;34.49
76137;BME280;68622;53.128;17.966;2023-10-08T11:21:17;101883.13;;;14.17;33.38
76137;BME280;68622;53.128;17.966;2023-10-08T11:23:50;101887.11;;;14.19;32.79
76137;BME280;68622;53.128;17.966;2023-10-08T11:26:26;101880.89;;;14.08;32.20
76137;BME280;68622;53.128;17.966;2023-10-08T11:28:59;101889.71;;;13.94;31.16
76137;BME280;68622;53.128;17.966;2023-10-08T11:31:29;101889.33;;;13.95;30.97
76137;BME280;68622;53.128;17.966;2023-10-08T11:34:02;101893.10;;;13.79;30.93
76137;BME280;68622;53.128;17.966;2023-10-08T11:36:37;101887.98;;;13.74;31.44
76137;BME280;68622;53.128;17.966;2023-10-08T11:39:22;101886.55;;;13.63;31.52
76137;BME280;68622;53.128;17.966;2023-10-08T11:42:01;101889.38;;;13.63;31.21
76137;BME280;68622;53.128;17.966;2023-10-08T11:44:43;101887.80;;;13.69;31.26
76137;BME280;68622;53.128;17.966;2023-10-08T11:47:10;101893.20;;;13.76;31.24
76137;BME280;68622;53.128;17.966;2023-10-08T11:49:47;101895.55;;;13.85;31.81
76137;BME280;68622;53.128;17.966;2023-10-08T11:52:17;101893.26;;;13.81;31.34
76137;BME280;68622;53.128;17.966;2023-10-08T11:54:47;101893.59;;;13.75;31.23
76137;BME280;68622;53.128;17.966;2023-10-08T11:57:15;101893.02;;;13.82;31.62
76137;BME280;68622;53.128;17.966;2023-10-08T11:59:48;101893.14;;;13.89;31.88
76137;BME280;68622;53.128;17.966;2023-10-08T12:02:15;101901.42;;;13.92;31.58
76137;BME280;68622;53.128;17.966;2023-10-08T12:04:43;101901.51;;;13.93;32.22
76137;BME280;68622;53.128;17.966;2023-10-08T12:07:11;101903.48;;;13.96;31.75
76137;BME280;68622;53.128;17.966;2023-10-08T12:09:39;101901.30;;;13.91;31.39
76137;BME280;68622;53.128;17.966;2023-10-08T12:12:07;101906.50;;;13.92;31.29
76137;BME280;68622;53.128;17.966;2023-10-08T12:14:36;101905.20;;;13.89;30.91
76137;BME280;68622;53.128;17.966;2023-10-08T12:17:04;101905.75;;;13.84;30.91
76137;BME280;68622;53.128;17.966;2023-10-08T12:19:37;101908.05;;;13.88;30.85
76137;BME280;68622;53.128;17.966;2023-10-08T12:22:07;101911.37;;;13.92;30.91
76137;BME280;68622;53.128;17.966;2023-10-08T12:24:35;101913.14;;;13.92;30.63
76137;BME280;68622;53.128;17.966;2023-10-08T12:27:02;101918.06;;;13.91;30.05
76137;BME280;68622;53.128;17.966;2023-10-08T12:29:29;101905.83;;;13.94;29.73
76137;BME280;68622;53.128;17.966;2023-10-08T12:31:59;101907.80;;;13.89;29.60
76137;BME280;68622;53.128;17.966;2023-10-08T12:34:26;101914.41;;;13.87;29.76
76137;BME280;68622;53.128;17.966;2023-10-08T12:36:55;101914.98;;;13.88;29.61
76137;BME280;68622;53.128;17.966;2023-10-08T12:39:22;101915.27;;;13.79;29.75
76137;BME280;68622;53.128;17.966;2023-10-08T12:41:54;101917.00;;;13.85;30.18
76137;BME280;68622;53.128;17.966;2023-10-08T12:44:23;101914.79;;;13.89;30.53
76137;BME280;68622;53.128;17.966;2023-10-08T12:46:50;101914.49;;;13.90;30.72
76137;BME280;68622;53.128;17.966;2023-10-08T12:49:18;101911.33;;;13.84;30.62
76137;BME280;68622;53.128;17.966;2023-10-08T12:51:47;101915.41;;;13.90;30.53
76137;BME280;68622;53.128;17.966;2023-10-08T12:54:14;101920.35;;;13.85;30.41
76137;BME280;68622;53.128;17.966;2023-10-08T12:56:48;101923.67;;;13.83;30.77
76137;BME280;68622;53.128;17.966;2023-10-08T12:59:15;101916.37;;;13.86;31.13
76137;BME280;68622;53.128;17.966;2023-10-08T13:01:48;101917.56;;;13.87;30.72
76137;BME280;68622;53.128;17.966;2023-10-08T13:04:20;101918.09;;;13.80;30.66
76137;BME280;68622;53.128;17.966;2023-10-08T13:06:55;101917.52;;;13.85;31.41
76137;BME280;68622;53.128;17.966;2023-10-08T13:09:27;101917.59;;;13.87;31.69
76137;BME280;68622;53.128;17.966;2023-10-08T13:11:57;101912.86;;;13.70;32.19
76137;BME280;68622;53.128;17.966;2023-10-08T13:14:26;101915.02;;;13.67;32.52